Terminal Aerodrome Forecast
Issued by NWS

Home | Current Version | Previous Version | Text Only | Print | Product List | Glossary On
Versions: 1 2 3 4 5 6 7 8 9 10 11 12 13 14
646
FTUS45 KTFX 010520
TAFLWT
TAF
KLWT 010520Z 0106/0206 30011G19KT P6SM VCSH SCT035 BKN050
      TEMPO 0109/0113 -SHRA BKN025
     FM011800 31015G23KT P6SM SCT035 BKN060=

USA.gov is the U.S. government's official web portal to all federal, state and local government web resources and services.